createdAt,value
2023-01-29T00:02:55.800Z,101847.31
2023-01-29T00:08:01.375Z,101850.91
2023-01-29T00:13:06.813Z,101851.34
2023-01-29T00:18:12.251Z,101847.81
2023-01-29T00:23:17.807Z,101839.09
2023-01-29T00:28:23.117Z,101838.50
2023-01-29T00:33:30.110Z,101830.47
2023-01-29T00:38:36.524Z,101828.28
2023-01-29T00:44:01.659Z,101830.44
2023-01-29T00:49:08.263Z,101827.22
2023-01-29T00:54:13.661Z,101824.72
2023-01-29T00:59:21.354Z,101821.38
2023-01-29T01:04:26.777Z,101816.81
2023-01-29T01:09:52.086Z,101816.03
2023-01-29T01:14:57.596Z,101819.66
2023-01-29T01:20:03.972Z,101811.84
2023-01-29T01:25:10.075Z,101809.53
2023-01-29T01:30:17.609Z,101812.03
2023-01-29T01:35:23.314Z,101805.50
2023-01-29T01:40:28.752Z,101794.44
2023-01-29T01:45:36.256Z,101795.56
2023-01-29T01:50:50.238Z,101777.81
2023-01-29T01:56:03.802Z,101793.97
2023-01-29T02:01:10.333Z,101791.03
2023-01-29T02:06:35.410Z,101779.31
2023-01-29T02:11:41.057Z,101788.81
2023-01-29T02:16:47.103Z,101785.28
2023-01-29T02:22:09.515Z,101793.47
2023-01-29T02:27:49.895Z,101783.19
2023-01-29T02:33:02.395Z,101778.03
2023-01-29T02:38:20.068Z,101779.00
2023-01-29T02:43:45.953Z,101766.44
2023-01-29T02:49:33.998Z,101768.09
2023-01-29T02:55:22.477Z,101755.88
2023-01-29T03:00:38.066Z,101758.03
2023-01-29T03:05:58.895Z,101753.72
2023-01-29T03:11:08.269Z,101753.41
2023-01-29T03:16:50.257Z,101770.03
2023-01-29T03:22:24.733Z,101768.41
2023-01-29T03:28:07.735Z,101759.28
2023-01-29T03:33:26.601Z,101753.09
2023-01-29T03:38:32.749Z,101750.34
2023-01-29T03:43:57.359Z,101751.34
2023-01-29T03:49:27.649Z,101745.78
2023-01-29T03:55:10.221Z,101755.84
2023-01-29T04:00:24.056Z,101750.28
2023-01-29T04:06:21.240Z,101746.34
2023-01-29T04:11:59.492Z,101750.44
2023-01-29T04:17:16.927Z,101755.75
2023-01-29T04:22:38.229Z,101765.13
2023-01-29T04:28:09.282Z,101768.13
2023-01-29T04:33:46.690Z,101758.97
2023-01-29T04:39:14.363Z,101763.09
2023-01-29T04:44:45.578Z,101755.28
2023-01-29T04:50:31.255Z,101759.06
2023-01-29T04:56:01.787Z,101753.03
2023-01-29T05:01:14.239Z,101751.88
2023-01-29T05:06:21.428Z,101761.47
2023-01-29T05:11:27.233Z,101765.13
2023-01-29T05:16:46.128Z,101758.94
2023-01-29T05:21:51.771Z,101755.78
2023-01-29T05:27:16.979Z,101757.94
2023-01-29T05:32:22.175Z,101756.69
2023-01-29T05:37:27.383Z,101765.22
2023-01-29T05:42:33.601Z,101764.56
2023-01-29T05:47:38.907Z,101758.13
2023-01-29T05:52:44.151Z,101758.00
2023-01-29T05:57:49.080Z,101757.94
2023-01-29T06:02:54.497Z,101758.31
2023-01-29T06:07:59.844Z,101757.09
2023-01-29T06:13:05.179Z,101755.53
2023-01-29T06:18:10.649Z,101767.19
2023-01-29T06:23:16.033Z,101755.63
2023-01-29T06:28:21.281Z,101760.41
2023-01-29T06:33:27.043Z,101759.13
2023-01-29T06:38:32.617Z,101745.34
2023-01-29T06:43:38.835Z,101750.31
2023-01-29T06:48:44.576Z,101736.63
2023-01-29T06:53:49.685Z,101713.25
2023-01-29T06:58:55.211Z,101714.72
2023-01-29T07:04:00.429Z,101714.63
2023-01-29T07:09:06.136Z,101716.56
2023-01-29T07:14:11.433Z,101714.38
2023-01-29T07:19:17.120Z,101714.13
2023-01-29T07:24:22.484Z,101711.00
2023-01-29T07:29:27.783Z,101715.69
2023-01-29T07:34:32.864Z,101726.72
2023-01-29T07:39:38.138Z,101741.72
2023-01-29T07:44:43.418Z,101732.75
2023-01-29T07:49:48.882Z,101719.31
2023-01-29T07:54:54.134Z,101700.66
2023-01-29T07:59:59.439Z,101697.28
2023-01-29T08:05:04.987Z,101698.19
2023-01-29T08:10:10.827Z,101700.66
2023-01-29T08:15:17.971Z,101697.97
2023-01-29T08:20:23.847Z,101701.06
2023-01-29T08:25:29.621Z,101687.56
2023-01-29T08:30:35.707Z,101682.34
2023-01-29T08:35:41.920Z,101680.44
2023-01-29T08:40:47.740Z,101659.97
2023-01-29T08:45:53.015Z,101657.22
2023-01-29T08:51:03.520Z,101638.50
2023-01-29T08:56:09.532Z,101621.22
2023-01-29T09:01:15.785Z,101639.97
2023-01-29T09:06:21.406Z,101633.34
2023-01-29T09:11:27.049Z,101625.91
2023-01-29T09:16:32.504Z,101627.47
2023-01-29T09:21:38.026Z,101617.00
2023-01-29T09:26:43.560Z,101619.09
2023-01-29T09:31:48.960Z,101604.13
2023-01-29T09:36:54.332Z,101611.13
2023-01-29T09:42:36.082Z,101621.88
2023-01-29T09:47:41.589Z,101610.53
2023-01-29T09:53:22.460Z,101599.84
2023-01-29T09:59:01.349Z,101619.22
2023-01-29T10:04:31.856Z,101592.34
2023-01-29T10:10:18.688Z,101591.41
2023-01-29T10:15:46.343Z,101586.13
2023-01-29T10:20:57.351Z,101589.91
2023-01-29T10:26:02.824Z,101590.41
2023-01-29T10:31:33.428Z,101581.31
2023-01-29T10:36:47.508Z,101569.53
2023-01-29T10:42:24.262Z,101565.91
2023-01-29T10:48:22.811Z,101557.41
2023-01-29T10:54:11.525Z,101549.06
2023-01-29T10:59:16.886Z,101546.88
2023-01-29T11:04:22.439Z,101538.13
2023-01-29T11:09:42.466Z,101537.06
2023-01-29T11:15:01.184Z,101526.91
2023-01-29T11:20:28.134Z,101523.91
2023-01-29T11:25:33.678Z,101519.97
2023-01-29T11:30:42.595Z,101519.78
2023-01-29T11:35:48.462Z,101519.31
2023-01-29T11:41:01.213Z,101521.16
2023-01-29T11:46:15.983Z,101516.38
2023-01-29T11:51:29.511Z,101508.69
2023-01-29T11:56:44.399Z,101506.22
2023-01-29T12:01:49.696Z,101503.06
2023-01-29T12:06:55.617Z,101501.75
2023-01-29T12:12:30.430Z,101514.72
2023-01-29T12:17:43.264Z,101515.88
2023-01-29T12:23:16.114Z,101509.81
2023-01-29T12:28:52.790Z,101494.41
2023-01-29T12:34:14.098Z,101499.59
2023-01-29T12:39:19.625Z,101495.31
2023-01-29T12:44:44.150Z,101501.91
2023-01-29T12:49:55.267Z,101484.69
2023-01-29T12:55:22.857Z,101488.56
2023-01-29T13:00:29.058Z,101481.19
2023-01-29T13:05:43.308Z,101479.00
2023-01-29T13:10:53.007Z,101483.88
2023-01-29T13:16:00.639Z,101479.06
2023-01-29T13:21:06.975Z,101484.47
2023-01-29T13:26:14.036Z,101488.22
2023-01-29T13:31:30.249Z,101492.91
2023-01-29T13:36:38.406Z,101488.06
2023-01-29T13:41:44.319Z,101497.91
2023-01-29T13:46:57.023Z,101495.59
2023-01-29T13:52:31.561Z,101492.41
2023-01-29T13:57:45.313Z,101495.84
2023-01-29T14:03:40.000Z,101482.19
2023-01-29T14:08:56.254Z,101484.88
2023-01-29T14:14:01.899Z,101479.72
2023-01-29T14:19:07.397Z,101479.28
2023-01-29T14:24:22.880Z,101479.97
2023-01-29T14:29:39.939Z,101483.88
2023-01-29T14:35:02.866Z,101465.94
2023-01-29T14:40:21.650Z,101461.13
2023-01-29T14:45:35.528Z,101430.97
2023-01-29T14:50:42.654Z,101459.84
2023-01-29T14:55:59.827Z,101453.25
2023-01-29T15:01:19.777Z,101451.94
2023-01-29T15:07:17.715Z,101448.84
2023-01-29T15:13:03.696Z,101461.56
2023-01-29T15:18:24.114Z,101461.38
2023-01-29T15:23:32.333Z,101462.00
2023-01-29T15:28:39.404Z,101464.94
2023-01-29T15:33:47.953Z,101451.81
2023-01-29T15:39:31.381Z,101458.94
2023-01-29T15:44:36.738Z,101464.25
2023-01-29T15:49:43.008Z,101415.28
2023-01-29T15:54:49.100Z,101449.78
2023-01-29T15:59:57.294Z,101455.78
2023-01-29T16:05:03.704Z,101460.50
2023-01-29T16:10:30.042Z,101459.38
2023-01-29T16:15:38.550Z,101447.44
2023-01-29T16:20:53.823Z,101445.66
2023-01-29T16:26:04.699Z,101442.28
2023-01-29T16:31:11.684Z,101424.38
2023-01-29T16:36:21.253Z,101427.19
2023-01-29T16:41:26.549Z,101424.84
2023-01-29T16:46:36.466Z,101431.69
2023-01-29T16:51:41.910Z,101430.97
2023-01-29T16:56:49.457Z,101430.41
2023-01-29T17:01:57.695Z,101429.09
2023-01-29T17:07:03.647Z,101416.88
2023-01-29T17:12:21.012Z,101404.75
2023-01-29T17:17:36.845Z,101403.78
2023-01-29T17:22:42.768Z,101398.94
2023-01-29T17:27:52.247Z,101393.28
2023-01-29T17:32:57.699Z,101398.38
2023-01-29T17:38:03.136Z,101391.91
2023-01-29T17:43:08.359Z,101387.31
2023-01-29T17:48:26.038Z,101392.22
2023-01-29T17:53:45.379Z,101395.66
2023-01-29T17:58:54.540Z,101390.22
2023-01-29T18:04:00.078Z,101384.38
2023-01-29T18:09:06.096Z,101381.34
2023-01-29T18:14:13.938Z,101385.91
2023-01-29T18:19:31.192Z,101378.19
2023-01-29T18:24:36.735Z,101376.34
2023-01-29T18:29:42.219Z,101371.50
2023-01-29T18:34:47.572Z,101366.97
2023-01-29T18:39:54.294Z,101377.50
2023-01-29T18:44:59.880Z,101363.09
2023-01-29T18:50:06.897Z,101372.59
2023-01-29T18:55:12.186Z,101365.41
2023-01-29T19:00:17.932Z,101365.63
2023-01-29T19:05:25.134Z,101347.63
2023-01-29T19:10:30.487Z,101351.00
2023-01-29T19:15:36.557Z,101357.84
2023-01-29T19:21:07.881Z,101346.94
2023-01-29T19:26:14.156Z,101351.06
2023-01-29T19:31:19.495Z,101344.25
2023-01-29T19:36:25.256Z,101347.88
2023-01-29T19:41:30.838Z,101349.75
2023-01-29T19:46:36.442Z,101330.59
2023-01-29T19:51:42.019Z,101356.22
2023-01-29T19:56:47.390Z,101348.69
2023-01-29T20:01:52.739Z,101342.44
2023-01-29T20:06:58.152Z,101335.41
2023-01-29T20:12:03.585Z,101338.22
2023-01-29T20:17:09.059Z,101338.25
2023-01-29T20:22:14.497Z,101339.16
2023-01-29T20:27:19.979Z,101334.59
2023-01-29T20:32:25.386Z,101332.09
2023-01-29T20:37:30.671Z,101304.50
2023-01-29T20:42:35.991Z,101328.06
2023-01-29T20:47:41.800Z,101337.97
2023-01-29T20:52:47.750Z,101333.72
2023-01-29T20:58:05.128Z,101351.59
2023-01-29T21:03:14.385Z,101343.72
2023-01-29T21:08:19.788Z,101335.28
2023-01-29T21:13:25.184Z,101345.13
2023-01-29T21:18:30.814Z,101345.84
2023-01-29T21:23:35.834Z,101347.22
2023-01-29T21:28:41.297Z,101335.06
2023-01-29T21:33:46.638Z,101338.28
2023-01-29T21:38:51.888Z,101327.16
2023-01-29T21:43:57.019Z,101329.28
2023-01-29T21:49:02.690Z,101328.06
2023-01-29T21:54:08.139Z,101309.53
2023-01-29T21:59:13.571Z,101329.59
2023-01-29T22:04:19.054Z,101324.84
2023-01-29T22:09:24.507Z,101318.00
2023-01-29T22:14:30.060Z,101313.22
2023-01-29T22:19:35.419Z,101315.75
2023-01-29T22:24:41.695Z,101326.63
2023-01-29T22:29:47.224Z,101312.84
2023-01-29T22:34:52.608Z,101315.56
2023-01-29T22:39:58.319Z,101310.81
2023-01-29T22:45:03.763Z,101310.84
2023-01-29T22:50:09.875Z,101304.09
2023-01-29T22:55:15.299Z,101292.81
2023-01-29T23:00:21.003Z,101286.44
2023-01-29T23:05:26.253Z,101292.94
2023-01-29T23:10:31.638Z,101296.06
2023-01-29T23:15:37.155Z,101287.28
2023-01-29T23:20:44.707Z,101276.09
2023-01-29T23:26:09.960Z,101267.09
2023-01-29T23:31:15.891Z,101268.72
2023-01-29T23:36:21.350Z,101258.38
2023-01-29T23:41:26.787Z,101265.81
2023-01-29T23:46:32.697Z,101236.78
2023-01-29T23:51:38.210Z,101258.63
2023-01-29T23:56:44.527Z,101259.03
